createdAt,value
2023-01-19T00:01:37.865Z,13.25
2023-01-19T00:04:06.605Z,11.60
2023-01-19T00:06:34.408Z,12.70
2023-01-19T00:09:02.033Z,15.80
2023-01-19T00:11:29.774Z,8.80
2023-01-19T00:13:58.808Z,9.65
2023-01-19T00:16:26.553Z,19.15
2023-01-19T00:18:54.262Z,11.18
2023-01-19T00:21:22.341Z,12.82
2023-01-19T00:23:52.657Z,14.60
2023-01-19T00:26:22.222Z,13.30
2023-01-19T00:28:50.409Z,10.10
2023-01-19T00:31:20.702Z,9.50
2023-01-19T00:33:49.384Z,7.97
2023-01-19T00:36:17.073Z,15.10
2023-01-19T00:38:44.640Z,12.35
2023-01-19T00:41:12.206Z,15.63
2023-01-19T00:43:39.766Z,17.55
2023-01-19T00:46:07.356Z,16.75
2023-01-19T00:48:35.025Z,11.40
2023-01-19T00:51:02.679Z,16.65
2023-01-19T00:53:32.719Z,10.75
2023-01-19T00:56:00.418Z,7.47
2023-01-19T00:58:28.175Z,16.33
2023-01-19T01:00:57.886Z,10.68
2023-01-19T01:03:27.993Z,8.35
2023-01-19T01:05:55.886Z,15.75
2023-01-19T01:08:23.498Z,9.88
2023-01-19T01:10:51.984Z,13.63
2023-01-19T01:13:22.565Z,21.85
2023-01-19T01:15:53.795Z,11.27
2023-01-19T01:18:22.266Z,12.02
2023-01-19T01:20:50.067Z,7.95
2023-01-19T01:23:22.657Z,14.75
2023-01-19T01:25:50.610Z,11.98
2023-01-19T01:28:18.232Z,15.05
2023-01-19T01:30:46.111Z,9.48
2023-01-19T01:33:15.002Z,8.63
2023-01-19T01:35:42.877Z,12.75
2023-01-19T01:38:10.717Z,12.15
2023-01-19T01:40:41.752Z,9.90
2023-01-19T01:43:14.127Z,12.50
2023-01-19T01:45:42.631Z,9.93
2023-01-19T01:48:27.339Z,9.38
2023-01-19T01:51:15.971Z,16.05
2023-01-19T01:53:47.328Z,11.10
2023-01-19T01:56:19.969Z,12.10
2023-01-19T01:58:48.730Z,8.52
2023-01-19T02:01:35.218Z,15.05
2023-01-19T02:04:03.021Z,13.07
2023-01-19T02:06:30.741Z,13.18
2023-01-19T02:09:27.867Z,8.95
2023-01-19T02:12:14.039Z,12.82
2023-01-19T02:14:41.731Z,13.02
2023-01-19T02:17:09.302Z,9.38
2023-01-19T02:19:43.717Z,10.57
2023-01-19T02:22:27.518Z,8.23
2023-01-19T02:24:55.424Z,10.68
2023-01-19T02:27:23.114Z,9.98
2023-01-19T02:29:50.730Z,13.40
2023-01-19T02:32:18.558Z,9.25
2023-01-19T02:34:46.393Z,11.85
2023-01-19T02:37:16.461Z,12.45
2023-01-19T02:39:57.681Z,14.23
2023-01-19T02:42:33.426Z,10.35
2023-01-19T02:45:06.836Z,10.95
2023-01-19T02:47:47.416Z,9.43
2023-01-19T02:50:41.896Z,10.25
2023-01-19T02:53:32.927Z,16.35
2023-01-19T02:56:34.148Z,14.20
2023-01-19T02:59:31.672Z,10.93
2023-01-19T03:02:18.453Z,13.27
2023-01-19T03:05:08.385Z,9.00
2023-01-19T03:07:42.140Z,8.27
2023-01-19T03:10:19.144Z,10.45
2023-01-19T03:13:05.744Z,10.88
2023-01-19T03:15:48.253Z,13.90
2023-01-19T03:18:20.753Z,8.52
2023-01-19T03:20:53.553Z,11.20
2023-01-19T03:23:24.969Z,12.10
2023-01-19T03:25:55.454Z,15.20
2023-01-19T03:28:24.636Z,11.90
2023-01-19T03:31:04.371Z,14.30
2023-01-19T03:33:36.636Z,12.45
2023-01-19T03:36:12.155Z,12.68
2023-01-19T03:38:43.052Z,14.60
2023-01-19T03:43:42.585Z,11.35
2023-01-19T03:46:12.083Z,14.02
2023-01-19T03:48:40.372Z,10.48
2023-01-19T03:51:09.895Z,17.10
2023-01-19T03:53:37.630Z,10.75
2023-01-19T03:56:06.236Z,9.30
2023-01-19T03:58:33.847Z,8.35
2023-01-19T04:01:04.150Z,8.13
2023-01-19T04:03:31.836Z,12.43
2023-01-19T04:06:00.017Z,9.75
2023-01-19T04:08:28.584Z,8.50
2023-01-19T04:10:58.152Z,8.05
2023-01-19T04:13:28.228Z,12.70
2023-01-19T04:15:59.666Z,12.53
2023-01-19T04:18:33.771Z,16.00
2023-01-19T04:21:03.835Z,10.95
2023-01-19T04:23:31.744Z,9.82
2023-01-19T04:26:09.099Z,13.40
2023-01-19T04:28:37.251Z,15.65
2023-01-19T04:31:06.487Z,12.48
2023-01-19T04:33:34.951Z,10.75
2023-01-19T04:36:04.133Z,15.98
2023-01-19T04:38:32.284Z,11.98
2023-01-19T04:41:00.103Z,12.27
2023-01-19T04:43:27.692Z,8.57
2023-01-19T04:45:55.559Z,10.95
2023-01-19T04:48:23.819Z,11.27
2023-01-19T04:50:52.665Z,8.18
2023-01-19T04:53:20.233Z,10.32
2023-01-19T04:55:47.805Z,9.57
2023-01-19T04:58:15.939Z,7.65
2023-01-19T05:00:43.935Z,15.57
2023-01-19T05:03:11.680Z,11.18
2023-01-19T05:05:42.007Z,13.02
2023-01-19T05:08:09.976Z,10.23
2023-01-19T05:10:37.672Z,15.13
2023-01-19T05:13:05.610Z,12.77
2023-01-19T05:15:33.250Z,13.52
2023-01-19T05:18:01.392Z,21.60
2023-01-19T05:20:29.207Z,15.68
2023-01-19T05:22:58.856Z,11.68
2023-01-19T05:25:27.013Z,12.27
2023-01-19T05:27:54.749Z,19.00
2023-01-19T05:30:22.347Z,14.13
2023-01-19T05:32:50.046Z,17.77
2023-01-19T05:35:20.134Z,16.05
2023-01-19T05:37:53.975Z,12.65
2023-01-19T05:40:24.265Z,17.48
2023-01-19T05:42:53.339Z,13.82
2023-01-19T05:45:21.441Z,10.82
2023-01-19T05:47:49.526Z,15.90
2023-01-19T06:57:29.054Z,11.60
2023-01-19T06:59:58.607Z,16.08
2023-01-19T07:02:28.600Z,18.45
2023-01-19T07:04:57.099Z,9.50
2023-01-19T07:07:27.448Z,16.38
2023-01-19T07:09:55.264Z,11.38
2023-01-19T07:12:23.594Z,13.73
2023-01-19T07:14:51.743Z,13.40
2023-01-19T07:17:19.718Z,13.38
2023-01-19T07:19:47.282Z,18.55
2023-01-19T07:22:15.202Z,17.77
2023-01-19T07:24:43.471Z,12.27
2023-01-19T07:27:14.015Z,14.65
2023-01-19T07:29:42.509Z,14.85
2023-01-19T07:32:10.087Z,15.43
2023-01-19T07:34:37.693Z,18.48
2023-01-19T07:37:05.292Z,15.68
2023-01-19T07:39:32.845Z,14.30
2023-01-19T07:42:00.464Z,15.48
2023-01-19T07:44:28.112Z,13.98
2023-01-19T07:46:56.331Z,17.73
2023-01-19T07:49:24.776Z,20.80
2023-01-19T07:51:52.302Z,13.88
2023-01-19T07:54:20.827Z,20.00
2023-01-19T07:56:48.416Z,12.57
2023-01-19T07:59:16.646Z,14.32
2023-01-19T08:01:44.592Z,13.38
2023-01-19T08:04:12.312Z,13.35
2023-01-19T08:06:41.024Z,20.08
2023-01-19T08:09:09.027Z,18.58
2023-01-19T08:11:37.336Z,17.38
2023-01-19T08:14:07.800Z,17.52
2023-01-19T08:16:36.464Z,22.42
2023-01-19T08:19:04.364Z,32.90
2023-01-19T08:21:33.358Z,28.10
2023-01-19T08:24:02.215Z,32.28
2023-01-19T08:26:35.038Z,28.50
2023-01-19T08:29:05.127Z,30.45
2023-01-19T08:31:33.242Z,23.42
2023-01-19T08:34:01.008Z,21.30
2023-01-19T08:36:28.593Z,20.05
2023-01-19T08:38:56.017Z,21.83
2023-01-19T08:41:23.517Z,17.17
2023-01-19T08:43:51.276Z,19.77
2023-01-19T08:46:21.837Z,29.33
2023-01-19T08:48:50.699Z,35.35
2023-01-19T08:51:19.088Z,30.30
2023-01-19T08:53:46.924Z,22.15
2023-01-19T08:56:14.591Z,22.75
2023-01-19T08:58:43.918Z,23.52
2023-01-19T09:01:22.256Z,19.65
2023-01-19T09:03:50.392Z,21.10
2023-01-19T09:06:19.302Z,16.13
2023-01-19T09:08:47.682Z,19.48
2023-01-19T09:11:17.374Z,18.52
2023-01-19T09:13:45.504Z,15.82
2023-01-19T09:16:14.992Z,18.90
2023-01-19T09:18:42.632Z,23.38
2023-01-19T09:21:10.410Z,21.27
2023-01-19T09:23:38.168Z,21.52
2023-01-19T09:26:07.303Z,20.60
2023-01-19T09:28:35.510Z,18.48
2023-01-19T09:31:07.769Z,15.43
2023-01-19T09:33:35.763Z,11.32
2023-01-19T09:36:03.491Z,15.05
2023-01-19T09:38:34.077Z,11.65
2023-01-19T09:41:01.768Z,20.30
2023-01-19T09:43:38.601Z,9.30
2023-01-19T09:46:41.763Z,20.33
2023-01-19T09:49:15.741Z,22.30
2023-01-19T09:51:48.745Z,16.20
2023-01-19T09:54:35.948Z,16.35
2023-01-19T09:57:06.724Z,23.73
2023-01-19T10:02:23.704Z,18.05
2023-01-19T10:05:17.170Z,12.75
2023-01-19T10:08:08.379Z,19.52
2023-01-19T10:10:40.504Z,10.07
2023-01-19T10:13:36.657Z,15.57
2023-01-19T10:16:31.715Z,9.90
2023-01-19T10:19:15.655Z,17.67
2023-01-19T10:21:46.391Z,12.10
2023-01-19T10:24:23.853Z,16.38
2023-01-19T10:26:55.004Z,9.85
2023-01-19T10:29:30.531Z,12.68
2023-01-19T10:32:26.150Z,12.25
2023-01-19T10:34:54.758Z,13.43
2023-01-19T10:37:32.207Z,11.13
2023-01-19T10:40:11.942Z,11.63
2023-01-19T10:42:41.467Z,7.43
2023-01-19T10:45:29.408Z,11.07
2023-01-19T10:48:06.538Z,14.60
2023-01-19T10:50:40.883Z,13.60
2023-01-19T10:53:22.333Z,12.27
2023-01-19T10:56:14.938Z,13.32
2023-01-19T10:58:43.018Z,13.77
2023-01-19T11:01:31.160Z,14.25
2023-01-19T11:04:05.506Z,12.40
2023-01-19T11:06:35.165Z,14.32
2023-01-19T11:09:18.836Z,13.00
2023-01-19T11:11:49.836Z,8.52
2023-01-19T11:16:54.899Z,9.90
2023-01-19T11:19:31.386Z,10.13
2023-01-19T11:22:29.889Z,10.65
2023-01-19T11:24:59.117Z,12.73
2023-01-19T11:27:27.623Z,24.38
2023-01-19T11:30:24.406Z,21.88
2023-01-19T11:32:52.857Z,12.63
2023-01-19T11:35:41.095Z,14.15
2023-01-19T11:38:18.786Z,14.82
2023-01-19T11:40:57.352Z,17.23
2023-01-19T11:43:43.345Z,11.85
2023-01-19T11:46:16.314Z,12.35
2023-01-19T11:48:57.326Z,9.70
2023-01-19T11:53:55.338Z,16.48
2023-01-19T11:56:29.027Z,8.55
2023-01-19T11:58:57.116Z,8.52
2023-01-19T12:01:31.457Z,9.45
2023-01-19T12:04:08.725Z,16.83
2023-01-19T12:06:41.516Z,12.77
2023-01-19T12:09:18.239Z,11.60
2023-01-19T12:12:07.755Z,12.10
2023-01-19T12:14:38.018Z,14.25
2023-01-19T12:17:13.627Z,12.10
2023-01-19T12:19:54.866Z,8.20
2023-01-19T12:22:24.062Z,14.63
2023-01-19T12:25:03.625Z,10.50
2023-01-19T12:27:40.845Z,8.13
2023-01-19T12:30:28.993Z,14.15
2023-01-19T12:33:35.926Z,12.98
2023-01-19T12:36:37.685Z,13.40
2023-01-19T12:39:26.566Z,8.65
2023-01-19T12:42:18.495Z,10.18
2023-01-19T12:44:47.827Z,10.10
2023-01-19T12:47:15.310Z,7.68
2023-01-19T12:49:44.852Z,14.07
2023-01-19T12:52:34.164Z,8.68
2023-01-19T12:55:13.740Z,8.52
2023-01-19T12:58:00.193Z,10.70
2023-01-19T13:00:42.835Z,10.65
2023-01-19T13:03:19.612Z,11.13
2023-01-19T13:05:57.368Z,7.60
2023-01-19T13:08:49.573Z,7.80
2023-01-19T13:11:19.854Z,11.40
2023-01-19T13:13:50.239Z,7.38
2023-01-19T13:16:21.242Z,12.57
2023-01-19T13:18:51.669Z,9.63
2023-01-19T13:21:30.244Z,13.70
2023-01-19T13:24:03.853Z,10.40
2023-01-19T13:26:33.178Z,10.55
2023-01-19T13:29:26.880Z,11.63
2023-01-19T13:32:02.340Z,9.00
2023-01-19T13:34:40.364Z,9.93
2023-01-19T13:37:20.584Z,9.32
2023-01-19T13:39:51.604Z,9.70
2023-01-19T13:42:36.345Z,10.60
2023-01-19T13:45:27.879Z,9.35
2023-01-19T13:47:58.633Z,9.05
2023-01-19T13:50:31.880Z,14.63
2023-01-19T13:53:00.064Z,7.65
2023-01-19T13:55:29.938Z,8.05
2023-01-19T13:57:57.879Z,11.90
2023-01-19T14:00:29.371Z,7.13
2023-01-19T14:03:24.401Z,11.77
2023-01-19T14:05:53.504Z,7.13
2023-01-19T14:08:22.323Z,10.73
2023-01-19T14:10:56.345Z,10.38
2023-01-19T14:13:29.452Z,8.00
2023-01-19T14:16:00.397Z,7.90
2023-01-19T14:21:09.824Z,9.45
2023-01-19T14:23:50.726Z,9.93
2023-01-19T14:26:41.740Z,10.02
2023-01-19T14:32:01.690Z,9.02
2023-01-19T14:34:39.276Z,10.40
2023-01-19T14:37:25.898Z,7.75
2023-01-19T14:40:04.669Z,12.57
2023-01-19T14:42:37.214Z,9.50
2023-01-19T14:45:12.945Z,10.65
2023-01-19T14:47:43.092Z,11.15
2023-01-19T14:50:24.492Z,10.37
2023-01-19T14:52:59.055Z,10.88
2023-01-19T14:55:35.389Z,9.48
2023-01-19T14:58:08.210Z,11.98
2023-01-19T15:00:35.745Z,12.23
2023-01-19T15:03:06.075Z,8.90
2023-01-19T15:05:34.053Z,7.10
2023-01-19T15:08:03.635Z,11.98
2023-01-19T15:10:31.599Z,17.80
2023-01-19T15:13:00.408Z,11.82
2023-01-19T15:15:31.837Z,16.00
2023-01-19T15:18:01.137Z,14.50
2023-01-19T15:20:28.955Z,14.32
2023-01-19T15:22:56.886Z,13.80
2023-01-19T15:25:28.122Z,8.65
2023-01-19T15:27:59.204Z,12.68
2023-01-19T15:30:31.066Z,12.52
2023-01-19T15:32:59.154Z,11.30
2023-01-19T15:35:26.641Z,12.05
2023-01-19T15:37:54.632Z,11.18
2023-01-19T15:40:23.305Z,15.45
2023-01-19T15:42:51.098Z,11.15
2023-01-19T15:45:41.909Z,12.00
2023-01-19T15:48:11.464Z,13.77
2023-01-19T15:50:44.306Z,15.68
2023-01-19T15:53:17.687Z,12.98
2023-01-19T15:55:49.867Z,18.67
2023-01-19T15:58:19.649Z,11.35
2023-01-19T16:00:57.130Z,11.07
2023-01-19T16:03:26.204Z,11.00
2023-01-19T16:05:53.673Z,11.23
2023-01-19T16:08:22.151Z,11.32
2023-01-19T16:10:49.903Z,13.23
2023-01-19T16:13:17.534Z,11.57
2023-01-19T16:15:45.128Z,15.23
2023-01-19T16:18:12.641Z,11.95
2023-01-19T16:20:40.178Z,17.52
2023-01-19T16:23:15.610Z,10.93
2023-01-19T16:25:44.044Z,12.18
2023-01-19T16:28:11.968Z,12.85
2023-01-19T16:30:39.606Z,9.32
2023-01-19T16:33:08.466Z,12.15
2023-01-19T16:35:36.033Z,7.07
2023-01-19T16:38:03.603Z,6.53
2023-01-19T16:40:31.109Z,11.55
2023-01-19T16:42:58.651Z,13.30
2023-01-19T16:45:26.155Z,7.72
2023-01-19T16:47:53.634Z,9.07
2023-01-19T16:50:21.230Z,12.88
2023-01-19T16:52:50.587Z,10.93
2023-01-19T16:55:18.195Z,9.45
2023-01-19T16:57:45.850Z,12.80
2023-01-19T17:00:13.966Z,9.85
2023-01-19T17:02:43.170Z,12.43
2023-01-19T17:05:11.000Z,12.20
2023-01-19T17:07:38.683Z,10.30
2023-01-19T17:10:06.926Z,11.70
2023-01-19T17:12:34.470Z,8.65
2023-01-19T17:15:02.026Z,9.18
2023-01-19T17:17:29.765Z,11.20
2023-01-19T17:19:57.699Z,10.63
2023-01-19T17:22:25.138Z,10.77
2023-01-19T17:24:52.583Z,14.55
2023-01-19T17:27:20.115Z,10.55
2023-01-19T17:29:50.036Z,10.00
2023-01-19T17:32:17.698Z,9.63
2023-01-19T17:34:46.706Z,10.45
2023-01-19T17:37:14.235Z,13.68
2023-01-19T17:39:41.731Z,13.60
2023-01-19T17:42:10.095Z,11.90
2023-01-19T17:44:37.527Z,14.98
2023-01-19T17:47:05.037Z,16.25
2023-01-19T17:49:32.580Z,12.25
2023-01-19T17:52:00.066Z,16.23
2023-01-19T17:54:27.720Z,35.65
2023-01-19T17:56:56.173Z,40.60
2023-01-19T17:59:23.706Z,23.50
2023-01-19T18:01:51.197Z,22.92
2023-01-19T18:04:18.676Z,25.70
2023-01-19T18:06:47.147Z,27.42
2023-01-19T18:09:14.640Z,28.50
2023-01-19T18:11:42.963Z,21.17
2023-01-19T18:14:10.400Z,21.35
2023-01-19T18:16:37.964Z,17.27
2023-01-19T18:19:05.518Z,16.73
2023-01-19T18:21:33.330Z,11.93
2023-01-19T18:24:03.904Z,16.30
2023-01-19T18:26:33.966Z,20.50
2023-01-19T18:29:01.424Z,16.40
2023-01-19T18:31:29.177Z,11.15
2023-01-19T18:33:56.863Z,11.95
2023-01-19T18:36:24.436Z,15.43
2023-01-19T18:38:52.239Z,21.25
2023-01-19T18:41:21.949Z,23.67
2023-01-19T18:43:49.720Z,21.08
2023-01-19T18:46:17.603Z,21.60
2023-01-19T18:48:45.106Z,22.13
2023-01-19T18:51:15.233Z,29.30
2023-01-19T18:53:43.918Z,22.95
2023-01-19T18:56:16.322Z,19.63
2023-01-19T18:58:44.723Z,26.05
2023-01-19T19:01:27.619Z,25.00
2023-01-19T19:03:57.145Z,21.85
2023-01-19T19:06:26.975Z,22.08
2023-01-19T19:08:56.962Z,21.42
2023-01-19T19:11:25.366Z,22.60
2023-01-19T19:13:59.060Z,22.75
2023-01-19T19:16:27.325Z,17.58
2023-01-19T19:18:55.195Z,22.92
2023-01-19T19:21:25.171Z,24.17
2023-01-19T19:23:55.057Z,28.27
2023-01-19T19:26:24.078Z,34.58
2023-01-19T19:28:51.693Z,32.13
2023-01-19T19:31:22.295Z,34.33
2023-01-19T19:33:51.114Z,36.30
2023-01-19T19:36:20.520Z,35.70
2023-01-19T19:38:49.693Z,33.80
2023-01-19T19:41:20.650Z,26.70
2023-01-19T19:46:19.961Z,36.53
2023-01-19T19:48:48.692Z,37.85
2023-01-19T19:51:28.540Z,43.70
2023-01-19T19:53:59.065Z,55.13
2023-01-19T19:56:29.465Z,54.72
2023-01-19T19:58:59.080Z,43.70
2023-01-19T20:01:32.503Z,44.30
2023-01-19T20:04:08.049Z,40.08
2023-01-19T20:06:38.998Z,40.38
2023-01-19T20:09:09.230Z,44.10
2023-01-19T20:11:37.397Z,37.05
2023-01-19T20:14:06.666Z,35.97
2023-01-19T20:16:34.716Z,34.25
2023-01-19T20:19:03.906Z,40.22
2023-01-19T20:21:37.560Z,32.72
2023-01-19T20:24:09.346Z,28.58
2023-01-19T20:26:41.124Z,25.30
2023-01-19T20:29:10.705Z,25.25
2023-01-19T20:31:42.989Z,28.17
2023-01-19T20:34:12.963Z,22.17
2023-01-19T20:36:41.301Z,39.57
2023-01-19T20:39:11.238Z,29.83
2023-01-19T20:41:43.510Z,25.27
2023-01-19T20:44:13.325Z,20.05
2023-01-19T20:46:41.061Z,31.35
2023-01-19T20:49:09.011Z,29.48
2023-01-19T20:51:39.623Z,31.88
2023-01-19T20:54:07.283Z,30.05
2023-01-19T20:56:35.015Z,29.52
2023-01-19T20:59:02.901Z,32.42
2023-01-19T21:01:30.673Z,34.42
2023-01-19T21:03:58.337Z,30.23
2023-01-19T21:06:26.079Z,36.38
2023-01-19T21:08:54.049Z,38.08
2023-01-19T21:11:23.951Z,32.75
2023-01-19T21:13:55.709Z,29.13
2023-01-19T21:16:28.357Z,33.35
2023-01-19T21:18:56.138Z,26.42
2023-01-19T21:21:30.928Z,32.22
2023-01-19T21:24:00.974Z,22.27
2023-01-19T21:26:33.518Z,22.70
2023-01-19T21:29:01.887Z,33.95
2023-01-19T21:31:29.875Z,26.83
2023-01-19T21:33:58.121Z,26.15
2023-01-19T21:36:26.282Z,20.63
2023-01-19T21:38:55.700Z,21.27
2023-01-19T21:41:23.277Z,24.50
2023-01-19T21:43:50.843Z,23.83
2023-01-19T21:46:21.573Z,23.58
2023-01-19T21:48:49.228Z,22.05
2023-01-19T21:51:17.072Z,25.50
2023-01-19T21:53:44.689Z,22.23
2023-01-19T21:56:12.290Z,22.60
2023-01-19T21:58:39.788Z,19.13
2023-01-19T22:01:13.810Z,30.50
2023-01-19T22:03:42.308Z,20.05
2023-01-19T22:06:12.249Z,22.02
2023-01-19T22:08:40.638Z,21.48
2023-01-19T22:11:10.181Z,27.77
2023-01-19T22:13:41.498Z,22.17
2023-01-19T22:16:15.819Z,23.95
2023-01-19T22:18:44.957Z,20.42
2023-01-19T22:21:21.393Z,21.58
2023-01-19T22:23:54.434Z,23.33
2023-01-19T22:26:22.744Z,25.95
2023-01-19T22:28:54.942Z,26.80
2023-01-19T22:31:24.196Z,20.83
2023-01-19T22:33:52.161Z,25.77
2023-01-19T22:36:21.196Z,25.27
2023-01-19T22:38:53.852Z,21.13
2023-01-19T22:41:30.499Z,23.92
2023-01-19T22:44:00.375Z,27.02
2023-01-19T22:46:30.504Z,15.85
2023-01-19T22:48:59.340Z,15.70
2023-01-19T22:51:28.243Z,17.05
2023-01-19T22:53:55.732Z,17.15
2023-01-19T22:56:25.366Z,14.32
2023-01-19T22:58:53.461Z,19.50
2023-01-19T23:01:23.974Z,19.67
2023-01-19T23:03:52.096Z,16.52
2023-01-19T23:06:25.403Z,19.77
2023-01-19T23:08:55.371Z,20.08
2023-01-19T23:11:25.209Z,16.35
2023-01-19T23:13:53.505Z,22.10
2023-01-19T23:16:21.594Z,16.63
2023-01-19T23:18:53.652Z,19.27
2023-01-19T23:21:23.180Z,18.42
2023-01-19T23:23:55.222Z,17.52
2023-01-19T23:26:24.275Z,15.23
2023-01-19T23:29:01.080Z,18.85
2023-01-19T23:31:30.142Z,13.43
2023-01-19T23:34:00.343Z,11.00
2023-01-19T23:36:30.965Z,13.60
2023-01-19T23:39:01.166Z,10.73
2023-01-19T23:41:30.989Z,13.73
2023-01-19T23:43:58.615Z,14.00
2023-01-19T23:46:26.530Z,20.13
2023-01-19T23:48:54.048Z,11.75
2023-01-19T23:51:24.403Z,17.83
2023-01-19T23:53:52.408Z,13.73
2023-01-19T23:56:32.128Z,12.45
2023-01-19T23:59:08.882Z,15.70
